sensor_id;sensor_type;location;lat;lon;timestamp;P1;durP1;ratioP1;P2;durP2;ratioP2
36971;SDS011;40554;52.122;20.678;2022-10-26T00:00:44;17.98;;;11.20;;
36971;SDS011;40554;52.122;20.678;2022-10-26T00:03:00;17.25;;;10.65;;
36971;SDS011;40554;52.122;20.678;2022-10-26T00:05:17;21.30;;;11.48;;
36971;SDS011;40554;52.122;20.678;2022-10-26T00:07:33;20.77;;;11.45;;
36971;SDS011;40554;52.122;20.678;2022-10-26T00:09:49;16.15;;;10.65;;
36971;SDS011;40554;52.122;20.678;2022-10-26T00:12:05;14.50;;;10.70;;
36971;SDS011;40554;52.122;20.678;2022-10-26T00:14:22;18.95;;;12.25;;
36971;SDS011;40554;52.122;20.678;2022-10-26T00:16:38;15.20;;;10.13;;
36971;SDS011;40554;52.122;20.678;2022-10-26T00:18:55;14.70;;;10.45;;
36971;SDS011;40554;52.122;20.678;2022-10-26T00:21:11;16.32;;;11.03;;
36971;SDS011;40554;52.122;20.678;2022-10-26T00:23:28;18.00;;;10.98;;
36971;SDS011;40554;52.122;20.678;2022-10-26T00:25:52;20.45;;;10.75;;
36971;SDS011;40554;52.122;20.678;2022-10-26T00:28:10;16.62;;;11.20;;
36971;SDS011;40554;52.122;20.678;2022-10-26T00:30:27;17.57;;;11.12;;
36971;SDS011;40554;52.122;20.678;2022-10-26T00:32:43;16.17;;;11.30;;
36971;SDS011;40554;52.122;20.678;2022-10-26T00:34:59;14.60;;;10.80;;
36971;SDS011;40554;52.122;20.678;2022-10-26T00:37:16;17.25;;;11.45;;
36971;SDS011;40554;52.122;20.678;2022-10-26T00:39:32;16.07;;;11.28;;
36971;SDS011;40554;52.122;20.678;2022-10-26T00:41:48;18.67;;;11.05;;
36971;SDS011;40554;52.122;20.678;2022-10-26T00:47:04;19.05;;;10.72;;
36971;SDS011;40554;52.122;20.678;2022-10-26T00:49:22;16.00;;;11.83;;
36971;SDS011;40554;52.122;20.678;2022-10-26T00:51:40;17.82;;;10.72;;
36971;SDS011;40554;52.122;20.678;2022-10-26T00:54:04;18.07;;;10.63;;
36971;SDS011;40554;52.122;20.678;2022-10-26T00:56:24;18.53;;;11.10;;
36971;SDS011;40554;52.122;20.678;2022-10-26T00:58:43;19.75;;;11.12;;
36971;SDS011;40554;52.122;20.678;2022-10-26T01:01:00;17.30;;;10.98;;
36971;SDS011;40554;52.122;20.678;2022-10-26T01:03:16;16.60;;;11.10;;
36971;SDS011;40554;52.122;20.678;2022-10-26T01:05:34;16.52;;;11.78;;
36971;SDS011;40554;52.122;20.678;2022-10-26T01:07:55;18.12;;;11.78;;
36971;SDS011;40554;52.122;20.678;2022-10-26T01:10:12;19.73;;;12.68;;
36971;SDS011;40554;52.122;20.678;2022-10-26T01:12:29;17.62;;;11.93;;
36971;SDS011;40554;52.122;20.678;2022-10-26T01:14:45;18.77;;;12.10;;
36971;SDS011;40554;52.122;20.678;2022-10-26T01:17:10;16.20;;;12.10;;
36971;SDS011;40554;52.122;20.678;2022-10-26T01:22:35;16.32;;;11.30;;
36971;SDS011;40554;52.122;20.678;2022-10-26T01:27:51;19.17;;;11.85;;
36971;SDS011;40554;52.122;20.678;2022-10-26T01:30:21;22.40;;;13.05;;
36971;SDS011;40554;52.122;20.678;2022-10-26T01:32:54;19.82;;;12.53;;
36971;SDS011;40554;52.122;20.678;2022-10-26T01:43:49;17.87;;;13.00;;
36971;SDS011;40554;52.122;20.678;2022-10-26T01:46:10;16.27;;;12.45;;
36971;SDS011;40554;52.122;20.678;2022-10-26T01:48:29;19.92;;;13.35;;
36971;SDS011;40554;52.122;20.678;2022-10-26T01:50:49;20.20;;;12.45;;
36971;SDS011;40554;52.122;20.678;2022-10-26T01:53:10;19.35;;;12.18;;
36971;SDS011;40554;52.122;20.678;2022-10-26T01:58:01;21.27;;;13.58;;
36971;SDS011;40554;52.122;20.678;2022-10-26T02:00:21;18.77;;;13.23;;
36971;SDS011;40554;52.122;20.678;2022-10-26T02:02:41;19.23;;;13.28;;
36971;SDS011;40554;52.122;20.678;2022-10-26T02:10:40;19.55;;;12.68;;
36971;SDS011;40554;52.122;20.678;2022-10-26T02:16:03;19.42;;;12.65;;
36971;SDS011;40554;52.122;20.678;2022-10-26T02:18:34;18.10;;;12.70;;
36971;SDS011;40554;52.122;20.678;2022-10-26T02:21:01;23.50;;;13.58;;
36971;SDS011;40554;52.122;20.678;2022-10-26T02:23:19;19.50;;;13.90;;
36971;SDS011;40554;52.122;20.678;2022-10-26T02:25:40;19.07;;;13.60;;
36971;SDS011;40554;52.122;20.678;2022-10-26T02:28:05;19.27;;;13.58;;
36971;SDS011;40554;52.122;20.678;2022-10-26T02:30:21;22.55;;;14.28;;
36971;SDS011;40554;52.122;20.678;2022-10-26T02:32:39;27.13;;;14.33;;
36971;SDS011;40554;52.122;20.678;2022-10-26T02:35:00;22.40;;;13.57;;
36971;SDS011;40554;52.122;20.678;2022-10-26T02:37:19;25.55;;;14.80;;
36971;SDS011;40554;52.122;20.678;2022-10-26T02:39:37;22.17;;;13.80;;
36971;SDS011;40554;52.122;20.678;2022-10-26T02:41:55;19.37;;;14.23;;
36971;SDS011;40554;52.122;20.678;2022-10-26T02:46:39;22.15;;;14.03;;
36971;SDS011;40554;52.122;20.678;2022-10-26T02:48:56;22.77;;;14.70;;
36971;SDS011;40554;52.122;20.678;2022-10-26T02:51:14;28.80;;;16.40;;
36971;SDS011;40554;52.122;20.678;2022-10-26T02:53:48;22.42;;;14.40;;
36971;SDS011;40554;52.122;20.678;2022-10-26T02:56:27;20.68;;;14.80;;
36971;SDS011;40554;52.122;20.678;2022-10-26T02:58:48;23.52;;;15.63;;
36971;SDS011;40554;52.122;20.678;2022-10-26T03:01:08;21.13;;;15.50;;
36971;SDS011;40554;52.122;20.678;2022-10-26T03:03:24;18.65;;;14.33;;
36971;SDS011;40554;52.122;20.678;2022-10-26T03:05:41;23.55;;;14.95;;
36971;SDS011;40554;52.122;20.678;2022-10-26T03:07:58;22.25;;;14.53;;
36971;SDS011;40554;52.122;20.678;2022-10-26T03:10:15;23.25;;;14.35;;
36971;SDS011;40554;52.122;20.678;2022-10-26T03:12:31;24.50;;;15.05;;
36971;SDS011;40554;52.122;20.678;2022-10-26T03:14:47;24.30;;;15.03;;
36971;SDS011;40554;52.122;20.678;2022-10-26T03:17:03;21.82;;;14.30;;
36971;SDS011;40554;52.122;20.678;2022-10-26T03:19:20;22.07;;;15.10;;
36971;SDS011;40554;52.122;20.678;2022-10-26T03:21:36;29.52;;;16.42;;
36971;SDS011;40554;52.122;20.678;2022-10-26T03:23:52;24.32;;;16.42;;
36971;SDS011;40554;52.122;20.678;2022-10-26T03:26:09;24.95;;;16.62;;
36971;SDS011;40554;52.122;20.678;2022-10-26T03:28:25;24.07;;;16.15;;
36971;SDS011;40554;52.122;20.678;2022-10-26T03:30:42;22.50;;;16.30;;
36971;SDS011;40554;52.122;20.678;2022-10-26T03:32:58;26.10;;;17.35;;
36971;SDS011;40554;52.122;20.678;2022-10-26T03:35:14;24.25;;;16.37;;
36971;SDS011;40554;52.122;20.678;2022-10-26T03:37:30;31.12;;;18.60;;
36971;SDS011;40554;52.122;20.678;2022-10-26T03:39:47;25.17;;;16.90;;
36971;SDS011;40554;52.122;20.678;2022-10-26T03:42:03;22.98;;;16.17;;
36971;SDS011;40554;52.122;20.678;2022-10-26T03:44:19;27.42;;;16.70;;
36971;SDS011;40554;52.122;20.678;2022-10-26T03:46:36;27.48;;;18.75;;
36971;SDS011;40554;52.122;20.678;2022-10-26T03:48:52;28.38;;;16.42;;
36971;SDS011;40554;52.122;20.678;2022-10-26T03:51:08;27.65;;;17.75;;
36971;SDS011;40554;52.122;20.678;2022-10-26T03:53:25;27.10;;;17.55;;
36971;SDS011;40554;52.122;20.678;2022-10-26T03:55:44;29.92;;;19.65;;
36971;SDS011;40554;52.122;20.678;2022-10-26T03:58:01;28.45;;;18.82;;
36971;SDS011;40554;52.122;20.678;2022-10-26T04:00:17;32.10;;;20.20;;
36971;SDS011;40554;52.122;20.678;2022-10-26T04:02:34;31.12;;;20.45;;
36971;SDS011;40554;52.122;20.678;2022-10-26T04:04:50;28.92;;;19.32;;
36971;SDS011;40554;52.122;20.678;2022-10-26T04:07:06;32.83;;;21.37;;
36971;SDS011;40554;52.122;20.678;2022-10-26T04:09:22;34.58;;;21.33;;
36971;SDS011;40554;52.122;20.678;2022-10-26T04:11:39;33.13;;;21.50;;
36971;SDS011;40554;52.122;20.678;2022-10-26T04:13:55;36.60;;;19.48;;
36971;SDS011;40554;52.122;20.678;2022-10-26T04:16:13;32.73;;;21.45;;
36971;SDS011;40554;52.122;20.678;2022-10-26T04:18:30;34.70;;;22.35;;
36971;SDS011;40554;52.122;20.678;2022-10-26T04:20:46;30.37;;;19.85;;
36971;SDS011;40554;52.122;20.678;2022-10-26T04:23:03;34.05;;;21.00;;
36971;SDS011;40554;52.122;20.678;2022-10-26T04:32:08;30.65;;;19.25;;
36971;SDS011;40554;52.122;20.678;2022-10-26T04:34:24;27.55;;;18.57;;
36971;SDS011;40554;52.122;20.678;2022-10-26T04:36:40;31.27;;;20.32;;
36971;SDS011;40554;52.122;20.678;2022-10-26T04:38:56;32.03;;;20.43;;
36971;SDS011;40554;52.122;20.678;2022-10-26T04:41:13;30.85;;;20.12;;
36971;SDS011;40554;52.122;20.678;2022-10-26T04:43:29;38.10;;;21.70;;
36971;SDS011;40554;52.122;20.678;2022-10-26T04:45:45;34.40;;;21.60;;
36971;SDS011;40554;52.122;20.678;2022-10-26T04:48:03;36.30;;;21.25;;
36971;SDS011;40554;52.122;20.678;2022-10-26T04:50:22;33.28;;;21.05;;
36971;SDS011;40554;52.122;20.678;2022-10-26T04:52:39;35.48;;;22.95;;
36971;SDS011;40554;52.122;20.678;2022-10-26T04:54:55;37.98;;;22.45;;
36971;SDS011;40554;52.122;20.678;2022-10-26T04:57:11;39.67;;;22.10;;
36971;SDS011;40554;52.122;20.678;2022-10-26T04:59:28;36.40;;;23.38;;
36971;SDS011;40554;52.122;20.678;2022-10-26T05:01:44;33.58;;;21.62;;
36971;SDS011;40554;52.122;20.678;2022-10-26T05:04:01;34.53;;;19.87;;
36971;SDS011;40554;52.122;20.678;2022-10-26T05:06:22;32.63;;;20.92;;
36971;SDS011;40554;52.122;20.678;2022-10-26T05:08:44;34.48;;;19.77;;
36971;SDS011;40554;52.122;20.678;2022-10-26T05:11:01;32.80;;;21.15;;
36971;SDS011;40554;52.122;20.678;2022-10-26T05:13:18;36.50;;;21.55;;
36971;SDS011;40554;52.122;20.678;2022-10-26T05:15:35;38.00;;;21.97;;
36971;SDS011;40554;52.122;20.678;2022-10-26T05:17:59;32.83;;;20.27;;
36971;SDS011;40554;52.122;20.678;2022-10-26T05:20:19;34.45;;;21.73;;
36971;SDS011;40554;52.122;20.678;2022-10-26T05:22:36;33.75;;;20.52;;
36971;SDS011;40554;52.122;20.678;2022-10-26T05:24:52;36.73;;;21.52;;
36971;SDS011;40554;52.122;20.678;2022-10-26T05:27:08;40.90;;;22.95;;
36971;SDS011;40554;52.122;20.678;2022-10-26T05:29:25;37.50;;;22.15;;
36971;SDS011;40554;52.122;20.678;2022-10-26T05:31:41;39.48;;;23.02;;
36971;SDS011;40554;52.122;20.678;2022-10-26T05:33:57;35.90;;;20.82;;
36971;SDS011;40554;52.122;20.678;2022-10-26T05:36:13;34.20;;;19.17;;
36971;SDS011;40554;52.122;20.678;2022-10-26T05:38:30;32.58;;;19.48;;
36971;SDS011;40554;52.122;20.678;2022-10-26T05:40:46;32.20;;;18.90;;
36971;SDS011;40554;52.122;20.678;2022-10-26T05:43:07;37.13;;;21.87;;
36971;SDS011;40554;52.122;20.678;2022-10-26T05:45:24;34.83;;;20.45;;
36971;SDS011;40554;52.122;20.678;2022-10-26T05:47:40;40.08;;;20.00;;
36971;SDS011;40554;52.122;20.678;2022-10-26T05:49:59;31.15;;;20.08;;
36971;SDS011;40554;52.122;20.678;2022-10-26T05:52:15;34.53;;;21.10;;
36971;SDS011;40554;52.122;20.678;2022-10-26T05:54:31;36.15;;;20.88;;
36971;SDS011;40554;52.122;20.678;2022-10-26T05:56:48;33.83;;;21.57;;
36971;SDS011;40554;52.122;20.678;2022-10-26T05:59:11;33.35;;;20.25;;
36971;SDS011;40554;52.122;20.678;2022-10-26T06:04:17;36.45;;;22.10;;
36971;SDS011;40554;52.122;20.678;2022-10-26T06:06:53;30.90;;;18.52;;
36971;SDS011;40554;52.122;20.678;2022-10-26T06:09:10;28.23;;;16.95;;
36971;SDS011;40554;52.122;20.678;2022-10-26T06:11:28;29.85;;;18.55;;
36971;SDS011;40554;52.122;20.678;2022-10-26T06:13:45;27.25;;;17.77;;
36971;SDS011;40554;52.122;20.678;2022-10-26T06:21:43;29.63;;;16.57;;
36971;SDS011;40554;52.122;20.678;2022-10-26T06:24:08;27.75;;;17.30;;
36971;SDS011;40554;52.122;20.678;2022-10-26T06:32:17;32.45;;;17.40;;
36971;SDS011;40554;52.122;20.678;2022-10-26T06:34:34;34.43;;;21.33;;
36971;SDS011;40554;52.122;20.678;2022-10-26T06:36:53;35.43;;;18.50;;
36971;SDS011;40554;52.122;20.678;2022-10-26T06:39:13;34.65;;;18.07;;
36971;SDS011;40554;52.122;20.678;2022-10-26T06:41:32;36.48;;;20.17;;
36971;SDS011;40554;52.122;20.678;2022-10-26T06:43:50;32.25;;;18.15;;
36971;SDS011;40554;52.122;20.678;2022-10-26T06:48:59;33.55;;;20.25;;
36971;SDS011;40554;52.122;20.678;2022-10-26T06:52:02;33.73;;;19.05;;
36971;SDS011;40554;52.122;20.678;2022-10-26T06:54:46;37.42;;;20.72;;
36971;SDS011;40554;52.122;20.678;2022-10-26T06:57:08;37.53;;;20.57;;
36971;SDS011;40554;52.122;20.678;2022-10-26T07:02:07;34.67;;;20.82;;
36971;SDS011;40554;52.122;20.678;2022-10-26T07:04:25;36.53;;;21.20;;
36971;SDS011;40554;52.122;20.678;2022-10-26T07:06:42;40.43;;;21.37;;
36971;SDS011;40554;52.122;20.678;2022-10-26T07:08:58;35.10;;;20.50;;
36971;SDS011;40554;52.122;20.678;2022-10-26T07:11:14;38.33;;;20.48;;
36971;SDS011;40554;52.122;20.678;2022-10-26T07:13:30;37.17;;;21.77;;
36971;SDS011;40554;52.122;20.678;2022-10-26T07:15:47;36.30;;;18.95;;
36971;SDS011;40554;52.122;20.678;2022-10-26T07:18:03;33.15;;;17.60;;
36971;SDS011;40554;52.122;20.678;2022-10-26T07:20:21;27.35;;;16.57;;
36971;SDS011;40554;52.122;20.678;2022-10-26T07:22:38;30.80;;;16.32;;
36971;SDS011;40554;52.122;20.678;2022-10-26T07:24:55;33.15;;;18.35;;
36971;SDS011;40554;52.122;20.678;2022-10-26T07:27:11;95.40;;;34.50;;
36971;SDS011;40554;52.122;20.678;2022-10-26T07:29:27;35.78;;;17.98;;
36971;SDS011;40554;52.122;20.678;2022-10-26T07:31:43;31.55;;;18.00;;
36971;SDS011;40554;52.122;20.678;2022-10-26T07:34:00;30.77;;;16.93;;
36971;SDS011;40554;52.122;20.678;2022-10-26T07:36:16;33.83;;;18.10;;
36971;SDS011;40554;52.122;20.678;2022-10-26T07:38:32;34.85;;;16.35;;
36971;SDS011;40554;52.122;20.678;2022-10-26T07:40:49;31.30;;;16.75;;
36971;SDS011;40554;52.122;20.678;2022-10-26T07:43:07;33.18;;;19.00;;
36971;SDS011;40554;52.122;20.678;2022-10-26T07:45:23;35.45;;;19.45;;
36971;SDS011;40554;52.122;20.678;2022-10-26T07:47:41;40.83;;;21.90;;
36971;SDS011;40554;52.122;20.678;2022-10-26T07:49:57;33.70;;;19.00;;
36971;SDS011;40554;52.122;20.678;2022-10-26T07:52:13;32.98;;;19.52;;
36971;SDS011;40554;52.122;20.678;2022-10-26T07:54:30;37.98;;;20.40;;
36971;SDS011;40554;52.122;20.678;2022-10-26T07:56:50;38.13;;;20.32;;
36971;SDS011;40554;52.122;20.678;2022-10-26T07:59:06;33.42;;;20.23;;
36971;SDS011;40554;52.122;20.678;2022-10-26T08:01:22;35.70;;;19.45;;
36971;SDS011;40554;52.122;20.678;2022-10-26T08:03:39;30.10;;;17.98;;
36971;SDS011;40554;52.122;20.678;2022-10-26T08:05:56;31.02;;;17.10;;
36971;SDS011;40554;52.122;20.678;2022-10-26T08:08:12;26.70;;;15.93;;
36971;SDS011;40554;52.122;20.678;2022-10-26T08:10:29;26.35;;;15.55;;
36971;SDS011;40554;52.122;20.678;2022-10-26T08:12:45;25.10;;;14.60;;
36971;SDS011;40554;52.122;20.678;2022-10-26T08:15:02;22.93;;;13.98;;
36971;SDS011;40554;52.122;20.678;2022-10-26T08:17:19;23.38;;;14.05;;
36971;SDS011;40554;52.122;20.678;2022-10-26T08:19:36;24.35;;;14.38;;
36971;SDS011;40554;52.122;20.678;2022-10-26T08:21:52;22.90;;;13.85;;
36971;SDS011;40554;52.122;20.678;2022-10-26T08:24:09;23.83;;;15.08;;
36971;SDS011;40554;52.122;20.678;2022-10-26T08:26:25;23.15;;;13.70;;
36971;SDS011;40554;52.122;20.678;2022-10-26T08:28:41;26.48;;;15.20;;
36971;SDS011;40554;52.122;20.678;2022-10-26T08:30:58;27.58;;;15.00;;
36971;SDS011;40554;52.122;20.678;2022-10-26T08:33:14;28.17;;;15.38;;
36971;SDS011;40554;52.122;20.678;2022-10-26T08:35:31;27.10;;;15.95;;
36971;SDS011;40554;52.122;20.678;2022-10-26T08:37:48;27.98;;;16.45;;
36971;SDS011;40554;52.122;20.678;2022-10-26T08:40:04;25.40;;;16.65;;
36971;SDS011;40554;52.122;20.678;2022-10-26T08:42:24;32.28;;;19.67;;
36971;SDS011;40554;52.122;20.678;2022-10-26T08:44:49;31.17;;;17.35;;
36971;SDS011;40554;52.122;20.678;2022-10-26T08:47:17;26.33;;;16.85;;
36971;SDS011;40554;52.122;20.678;2022-10-26T08:49:39;26.55;;;17.15;;
36971;SDS011;40554;52.122;20.678;2022-10-26T08:52:08;26.70;;;17.17;;
36971;SDS011;40554;52.122;20.678;2022-10-26T08:54:40;26.20;;;17.30;;
36971;SDS011;40554;52.122;20.678;2022-10-26T08:56:57;27.98;;;17.17;;
36971;SDS011;40554;52.122;20.678;2022-10-26T08:59:35;27.70;;;17.73;;
36971;SDS011;40554;52.122;20.678;2022-10-26T09:02:12;28.10;;;16.97;;
36971;SDS011;40554;52.122;20.678;2022-10-26T09:04:30;28.62;;;18.45;;
36971;SDS011;40554;52.122;20.678;2022-10-26T09:18:14;34.85;;;19.27;;
36971;SDS011;40554;52.122;20.678;2022-10-26T09:20:54;35.30;;;20.15;;
36971;SDS011;40554;52.122;20.678;2022-10-26T09:26:13;34.40;;;19.57;;
36971;SDS011;40554;52.122;20.678;2022-10-26T09:28:33;32.48;;;18.62;;
36971;SDS011;40554;52.122;20.678;2022-10-26T09:30:51;32.42;;;20.25;;
36971;SDS011;40554;52.122;20.678;2022-10-26T09:33:14;29.90;;;18.40;;
36971;SDS011;40554;52.122;20.678;2022-10-26T09:35:38;34.55;;;18.70;;
36971;SDS011;40554;52.122;20.678;2022-10-26T09:38:13;32.05;;;19.15;;
36971;SDS011;40554;52.122;20.678;2022-10-26T09:43:18;39.00;;;20.00;;
36971;SDS011;40554;52.122;20.678;2022-10-26T09:45:55;30.60;;;18.70;;
36971;SDS011;40554;52.122;20.678;2022-10-26T09:50:49;31.95;;;18.85;;
36971;SDS011;40554;52.122;20.678;2022-10-26T09:53:05;31.73;;;18.65;;
36971;SDS011;40554;52.122;20.678;2022-10-26T09:55:21;28.17;;;17.98;;
36971;SDS011;40554;52.122;20.678;2022-10-26T09:57:41;28.73;;;17.73;;
36971;SDS011;40554;52.122;20.678;2022-10-26T10:00:05;35.28;;;21.07;;
36971;SDS011;40554;52.122;20.678;2022-10-26T10:04:51;32.53;;;19.87;;
36971;SDS011;40554;52.122;20.678;2022-10-26T10:09:28;33.63;;;19.55;;
36971;SDS011;40554;52.122;20.678;2022-10-26T10:11:54;31.25;;;19.23;;
36971;SDS011;40554;52.122;20.678;2022-10-26T10:14:15;29.82;;;17.20;;
36971;SDS011;40554;52.122;20.678;2022-10-26T10:16:34;26.52;;;16.95;;
36971;SDS011;40554;52.122;20.678;2022-10-26T10:18:52;32.05;;;19.32;;
36971;SDS011;40554;52.122;20.678;2022-10-26T10:21:11;30.17;;;18.07;;
36971;SDS011;40554;52.122;20.678;2022-10-26T10:23:32;28.30;;;17.37;;
36971;SDS011;40554;52.122;20.678;2022-10-26T10:30:41;22.73;;;15.50;;
36971;SDS011;40554;52.122;20.678;2022-10-26T10:33:03;26.05;;;16.97;;
36971;SDS011;40554;52.122;20.678;2022-10-26T10:35:27;24.15;;;15.48;;
36971;SDS011;40554;52.122;20.678;2022-10-26T10:37:45;26.85;;;16.20;;
36971;SDS011;40554;52.122;20.678;2022-10-26T10:40:02;26.73;;;16.35;;
36971;SDS011;40554;52.122;20.678;2022-10-26T10:42:22;27.20;;;17.20;;
36971;SDS011;40554;52.122;20.678;2022-10-26T10:44:42;28.00;;;16.97;;
36971;SDS011;40554;52.122;20.678;2022-10-26T10:47:05;24.72;;;16.07;;
36971;SDS011;40554;52.122;20.678;2022-10-26T10:49:24;29.07;;;17.35;;
36971;SDS011;40554;52.122;20.678;2022-10-26T10:51:42;27.77;;;16.67;;
36971;SDS011;40554;52.122;20.678;2022-10-26T10:54:00;26.30;;;15.93;;
36971;SDS011;40554;52.122;20.678;2022-10-26T11:02:01;28.05;;;16.27;;
36971;SDS011;40554;52.122;20.678;2022-10-26T11:07:03;25.30;;;17.37;;
36971;SDS011;40554;52.122;20.678;2022-10-26T11:09:24;28.10;;;16.77;;
36971;SDS011;40554;52.122;20.678;2022-10-26T11:14:21;27.55;;;15.60;;
36971;SDS011;40554;52.122;20.678;2022-10-26T11:16:41;26.75;;;14.03;;
36971;SDS011;40554;52.122;20.678;2022-10-26T11:21:53;20.90;;;11.15;;
36971;SDS011;40554;52.122;20.678;2022-10-26T11:24:12;26.35;;;13.43;;
36971;SDS011;40554;52.122;20.678;2022-10-26T11:31:47;23.47;;;12.95;;
36971;SDS011;40554;52.122;20.678;2022-10-26T11:37:03;19.30;;;13.48;;
36971;SDS011;40554;52.122;20.678;2022-10-26T11:44:44;19.52;;;12.53;;
36971;SDS011;40554;52.122;20.678;2022-10-26T11:47:14;19.92;;;12.78;;
36971;SDS011;40554;52.122;20.678;2022-10-26T11:54:54;17.35;;;12.80;;
36971;SDS011;40554;52.122;20.678;2022-10-26T11:59:36;17.70;;;11.75;;
36971;SDS011;40554;52.122;20.678;2022-10-26T12:01:59;17.52;;;11.75;;
36971;SDS011;40554;52.122;20.678;2022-10-26T12:04:19;19.17;;;11.43;;
36971;SDS011;40554;52.122;20.678;2022-10-26T12:06:40;19.98;;;11.15;;
36971;SDS011;40554;52.122;20.678;2022-10-26T12:11:37;20.08;;;11.35;;
36971;SDS011;40554;52.122;20.678;2022-10-26T12:17:05;19.48;;;11.35;;
36971;SDS011;40554;52.122;20.678;2022-10-26T12:20:13;19.82;;;11.73;;
36971;SDS011;40554;52.122;20.678;2022-10-26T12:21:58;21.33;;;13.03;;
36971;SDS011;40554;52.122;20.678;2022-10-26T12:26:50;17.70;;;11.73;;
36971;SDS011;40554;52.122;20.678;2022-10-26T12:29:26;16.25;;;10.82;;
36971;SDS011;40554;52.122;20.678;2022-10-26T12:31:46;16.17;;;11.15;;
36971;SDS011;40554;52.122;20.678;2022-10-26T12:34:03;19.45;;;12.13;;
36971;SDS011;40554;52.122;20.678;2022-10-26T12:41:55;17.48;;;11.33;;
36971;SDS011;40554;52.122;20.678;2022-10-26T12:46:55;18.60;;;13.90;;
36971;SDS011;40554;52.122;20.678;2022-10-26T12:49:56;21.05;;;13.53;;
36971;SDS011;40554;52.122;20.678;2022-10-26T12:52:16;24.25;;;17.90;;
36971;SDS011;40554;52.122;20.678;2022-10-26T12:54:38;20.57;;;14.98;;
36971;SDS011;40554;52.122;20.678;2022-10-26T12:57:00;20.52;;;13.58;;
36971;SDS011;40554;52.122;20.678;2022-10-26T13:07:43;24.82;;;13.18;;
36971;SDS011;40554;52.122;20.678;2022-10-26T13:10:03;18.95;;;13.62;;
36971;SDS011;40554;52.122;20.678;2022-10-26T13:15:27;22.27;;;15.18;;
36971;SDS011;40554;52.122;20.678;2022-10-26T13:17:55;23.32;;;14.50;;
36971;SDS011;40554;52.122;20.678;2022-10-26T13:20:18;18.77;;;13.55;;
36971;SDS011;40554;52.122;20.678;2022-10-26T13:22:34;22.40;;;15.20;;
36971;SDS011;40554;52.122;20.678;2022-10-26T13:24:57;26.42;;;17.05;;
36971;SDS011;40554;52.122;20.678;2022-10-26T13:27:23;21.95;;;15.50;;
36971;SDS011;40554;52.122;20.678;2022-10-26T13:32:53;22.85;;;14.93;;
36971;SDS011;40554;52.122;20.678;2022-10-26T13:35:11;20.10;;;13.90;;
36971;SDS011;40554;52.122;20.678;2022-10-26T13:37:30;24.72;;;14.45;;
36971;SDS011;40554;52.122;20.678;2022-10-26T13:39:49;22.80;;;14.05;;
36971;SDS011;40554;52.122;20.678;2022-10-26T13:42:12;26.93;;;13.72;;
36971;SDS011;40554;52.122;20.678;2022-10-26T13:47:23;17.77;;;13.00;;
36971;SDS011;40554;52.122;20.678;2022-10-26T13:50:00;20.82;;;12.88;;
36971;SDS011;40554;52.122;20.678;2022-10-26T13:52:31;17.40;;;12.63;;
36971;SDS011;40554;52.122;20.678;2022-10-26T13:54:52;16.07;;;12.00;;
36971;SDS011;40554;52.122;20.678;2022-10-26T13:59:44;18.75;;;11.28;;
36971;SDS011;40554;52.122;20.678;2022-10-26T14:02:44;16.32;;;10.72;;
36971;SDS011;40554;52.122;20.678;2022-10-26T14:04:39;19.80;;;11.45;;
36971;SDS011;40554;52.122;20.678;2022-10-26T14:07:03;18.02;;;12.23;;
36971;SDS011;40554;52.122;20.678;2022-10-26T14:09:20;19.65;;;12.20;;
36971;SDS011;40554;52.122;20.678;2022-10-26T14:11:47;19.20;;;13.25;;
36971;SDS011;40554;52.122;20.678;2022-10-26T14:16:32;17.37;;;10.70;;
36971;SDS011;40554;52.122;20.678;2022-10-26T14:18:50;21.27;;;12.15;;
36971;SDS011;40554;52.122;20.678;2022-10-26T14:21:06;17.30;;;11.05;;
36971;SDS011;40554;52.122;20.678;2022-10-26T14:26:27;15.85;;;10.05;;
36971;SDS011;40554;52.122;20.678;2022-10-26T14:28:57;15.00;;;9.58;;
36971;SDS011;40554;52.122;20.678;2022-10-26T14:33:44;18.90;;;11.08;;
36971;SDS011;40554;52.122;20.678;2022-10-26T14:36:00;15.90;;;10.35;;
36971;SDS011;40554;52.122;20.678;2022-10-26T14:38:18;17.90;;;10.70;;
36971;SDS011;40554;52.122;20.678;2022-10-26T14:40:40;14.00;;;9.98;;
36971;SDS011;40554;52.122;20.678;2022-10-26T14:42:57;19.02;;;10.53;;
36971;SDS011;40554;52.122;20.678;2022-10-26T14:47:40;24.05;;;13.25;;
36971;SDS011;40554;52.122;20.678;2022-10-26T14:50:00;17.48;;;11.97;;
36971;SDS011;40554;52.122;20.678;2022-10-26T14:52:22;23.65;;;13.38;;
36971;SDS011;40554;52.122;20.678;2022-10-26T14:54:41;20.92;;;14.20;;
36971;SDS011;40554;52.122;20.678;2022-10-26T14:57:03;28.23;;;17.23;;
36971;SDS011;40554;52.122;20.678;2022-10-26T14:59:23;27.27;;;16.87;;
36971;SDS011;40554;52.122;20.678;2022-10-26T15:01:51;24.52;;;17.23;;
36971;SDS011;40554;52.122;20.678;2022-10-26T15:04:36;24.02;;;16.45;;
36971;SDS011;40554;52.122;20.678;2022-10-26T15:06:47;26.62;;;17.75;;
36971;SDS011;40554;52.122;20.678;2022-10-26T15:09:04;24.60;;;15.93;;
36971;SDS011;40554;52.122;20.678;2022-10-26T15:11:21;25.30;;;17.92;;
36971;SDS011;40554;52.122;20.678;2022-10-26T15:13:38;30.32;;;16.07;;
36971;SDS011;40554;52.122;20.678;2022-10-26T15:16:21;23.15;;;16.23;;
36971;SDS011;40554;52.122;20.678;2022-10-26T15:18:37;26.93;;;17.35;;
36971;SDS011;40554;52.122;20.678;2022-10-26T15:20:54;29.25;;;15.90;;
36971;SDS011;40554;52.122;20.678;2022-10-26T15:23:11;26.15;;;17.42;;
36971;SDS011;40554;52.122;20.678;2022-10-26T15:25:29;29.10;;;17.60;;
36971;SDS011;40554;52.122;20.678;2022-10-26T15:27:48;28.90;;;16.95;;
36971;SDS011;40554;52.122;20.678;2022-10-26T15:32:41;29.87;;;18.42;;
36971;SDS011;40554;52.122;20.678;2022-10-26T15:37:41;31.68;;;20.02;;
36971;SDS011;40554;52.122;20.678;2022-10-26T15:40:16;31.75;;;20.62;;
36971;SDS011;40554;52.122;20.678;2022-10-26T15:42:34;32.13;;;21.12;;
36971;SDS011;40554;52.122;20.678;2022-10-26T15:44:54;33.33;;;21.48;;
36971;SDS011;40554;52.122;20.678;2022-10-26T15:49:33;39.10;;;23.30;;
36971;SDS011;40554;52.122;20.678;2022-10-26T15:51:49;38.92;;;23.22;;
36971;SDS011;40554;52.122;20.678;2022-10-26T15:54:06;35.10;;;22.62;;
36971;SDS011;40554;52.122;20.678;2022-10-26T15:56:30;33.58;;;22.55;;
36971;SDS011;40554;52.122;20.678;2022-10-26T15:58:46;33.75;;;21.07;;
36971;SDS011;40554;52.122;20.678;2022-10-26T16:01:03;34.48;;;21.85;;
36971;SDS011;40554;52.122;20.678;2022-10-26T16:03:23;33.42;;;20.62;;
36971;SDS011;40554;52.122;20.678;2022-10-26T16:05:40;27.77;;;19.45;;
36971;SDS011;40554;52.122;20.678;2022-10-26T16:07:57;33.63;;;21.15;;
36971;SDS011;40554;52.122;20.678;2022-10-26T16:10:21;33.25;;;20.23;;
36971;SDS011;40554;52.122;20.678;2022-10-26T16:12:39;33.73;;;21.55;;
36971;SDS011;40554;52.122;20.678;2022-10-26T16:14:55;46.48;;;29.15;;
36971;SDS011;40554;52.122;20.678;2022-10-26T16:17:11;50.30;;;35.50;;
36971;SDS011;40554;52.122;20.678;2022-10-26T16:19:28;51.13;;;36.73;;
36971;SDS011;40554;52.122;20.678;2022-10-26T16:21:49;57.80;;;37.55;;